TimeEST,TemperatureF,Dew PointF,Humidity,Sea Level PressureIn,VisibilityMPH,Wind Direction,Wind SpeedMPH,Gust SpeedMPH,PrecipitationIn,Events,Conditions,WindDirDegrees,DateUTC
12:51 AM,28.9,24.1,82,29.88,9.0,ESE,4.6,-,N/A,,Overcast,110,2014-01-21 05:51:00
1:51 AM,30.0,23.0,75,29.86,10.0,East,3.5,-,N/A,,Overcast,100,2014-01-21 06:51:00
2:51 AM,30.0,23.0,75,29.86,8.0,East,4.6,-,N/A,,Overcast,90,2014-01-21 07:51:00
3:14 AM,28.4,24.8,86,29.84,1.8,NNE,4.6,-,0.00,Snow,Light Snow,20,2014-01-21 08:14:00
3:22 AM,28.4,24.8,86,29.84,1.2,NNE,6.9,-,0.00,Snow,Light Snow,20,2014-01-21 08:22:00
3:42 AM,28.4,24.8,86,29.82,1.2,NE,6.9,-,0.01,Snow,Light Snow,40,2014-01-21 08:42:00
3:51 AM,28.0,24.1,85,29.84,1.2,NE,6.9,-,0.02,Snow,Light Snow,40,2014-01-21 08:51:00
4:08 AM,28.4,24.8,86,29.81,1.5,NE,8.1,-,0.00,Snow,Light Snow,40,2014-01-21 09:08:00
4:20 AM,26.6,23.0,86,29.81,1.2,NE,13.8,-,0.01,Snow,Light Snow,50,2014-01-21 09:20:00
4:30 AM,26.6,23.0,86,29.81,1.5,NE,8.1,-,0.01,Snow,Light Snow,50,2014-01-21 09:30:00
4:51 AM,26.1,21.0,81,29.86,1.2,NNE,17.3,-,0.01,Snow,Light Snow,20,2014-01-21 09:51:00
4:54 AM,24.8,19.4,80,29.83,1.5,NNE,15.0,-,0.00,Snow,Light Snow,20,2014-01-21 09:54:00
5:22 AM,24.8,19.4,80,29.84,1.0,NNE,18.4,-,0.01,Snow,Light Snow,20,2014-01-21 10:22:00
5:51 AM,21.9,16.0,78,29.88,1.8,NNE,11.5,24.2,0.01,Snow,Light Snow,20,2014-01-21 10:51:00
6:06 AM,21.2,15.8,80,29.86,2.5,NNE,19.6,24.2,0.00,Snow,Light Snow,20,2014-01-21 11:06:00
6:23 AM,21.2,15.8,80,29.86,3.0,North,18.4,23.0,0.00,Snow,Light Snow,10,2014-01-21 11:23:00
6:36 AM,21.2,15.8,80,29.87,1.5,North,18.4,23.0,0.00,Snow,Light Snow,10,2014-01-21 11:36:00
6:51 AM,19.9,15.1,81,29.90,1.5,North,16.1,23.0,0.00,Snow,Light Snow,10,2014-01-21 11:51:00
7:09 AM,19.4,14.0,80,29.87,3.0,NNE,17.3,-,0.01,Snow,Light Snow,20,2014-01-21 12:09:00
7:25 AM,19.4,12.2,74,29.88,3.0,North,16.1,24.2,0.01,Snow,Light Snow,10,2014-01-21 12:25:00
7:51 AM,19.0,10.9,71,29.92,3.0,North,16.1,26.5,0.01,Snow,Light Snow,10,2014-01-21 12:51:00
8:02 AM,19.4,10.4,68,29.89,2.0,NNE,17.3,28.8,0.00,Snow,Light Snow,20,2014-01-21 13:02:00
8:09 AM,19.4,12.2,74,29.90,1.0,North,13.8,28.8,0.00,Snow,Light Snow,10,2014-01-21 13:09:00
8:21 AM,17.6,12.2,79,29.90,1.0,NNE,15.0,-,0.00,Snow,Light Snow,20,2014-01-21 13:21:00
8:51 AM,18.0,9.0,68,29.94,2.0,North,21.9,28.8,0.00,Snow,Light Snow,10,2014-01-21 13:51:00
9:01 AM,17.6,10.4,73,29.92,1.8,North,21.9,27.6,0.00,Snow,Light Snow,10,2014-01-21 14:01:00
9:14 AM,17.6,8.6,68,29.93,2.0,North,25.3,31.1,0.00,Snow,Light Snow,10,2014-01-21 14:14:00
9:51 AM,18.0,9.0,68,29.98,2.0,North,17.3,27.6,0.00,Snow,Light Snow,10,2014-01-21 14:51:00
10:05 AM,15.8,8.6,73,29.95,1.8,NNW,17.3,-,0.00,Snow,Light Snow,340,2014-01-21 15:05:00
10:22 AM,15.8,8.6,73,29.96,2.0,North,18.4,-,0.00,Snow,Light Snow,350,2014-01-21 15:22:00
10:48 AM,15.8,8.6,73,29.97,3.0,North,20.7,-,0.00,Snow,Light Snow,350,2014-01-21 15:48:00
10:51 AM,16.0,8.1,71,30.01,3.0,North,17.3,-,0.00,Snow,Light Snow,360,2014-01-21 15:51:00
11:45 AM,15.8,8.6,73,29.98,3.0,North,17.3,-,0.00,,Haze,350,2014-01-21 16:45:00
11:51 AM,16.0,8.1,71,30.01,3.0,North,17.3,-,0.00,,Overcast,360,2014-01-21 16:51:00
12:51 PM,17.1,7.0,65,30.01,10.0,NNW,16.1,-,N/A,,Mostly Cloudy,340,2014-01-21 17:51:00
1:51 PM,17.1,6.1,62,30.01,10.0,North,17.3,25.3,N/A,,Overcast,360,2014-01-21 18:51:00
2:07 PM,17.6,6.8,63,29.98,9.0,North,18.4,25.3,0.00,Snow,Light Snow,350,2014-01-21 19:07:00
2:51 PM,17.1,7.0,65,30.02,8.0,North,18.4,-,0.00,,Overcast,360,2014-01-21 19:51:00
3:10 PM,17.6,6.8,63,29.99,9.0,NNW,18.4,23.0,0.00,,Overcast,340,2014-01-21 20:10:00
3:51 PM,17.1,3.0,54,30.05,10.0,North,19.6,-,0.00,,Mostly Cloudy,350,2014-01-21 20:51:00
4:51 PM,15.1,1.0,54,30.09,10.0,North,18.4,-,N/A,,Mostly Cloudy,360,2014-01-21 21:51:00
5:51 PM,12.9,-0.0,56,30.13,10.0,North,16.1,-,N/A,,Scattered Clouds,10,2014-01-21 22:51:00
6:51 PM,10.9,-0.9,59,30.16,10.0,North,11.5,-,N/A,,Partly Cloudy,10,2014-01-21 23:51:00
7:51 PM,10.0,-0.9,61,30.18,10.0,North,10.4,-,N/A,,Partly Cloudy,350,2014-01-22 00:51:00
8:51 PM,9.0,-2.0,61,30.17,10.0,North,9.2,-,N/A,,Mostly Cloudy,10,2014-01-22 01:51:00
9:13 PM,8.6,-2.2,62,30.13,10.0,NNE,8.1,-,N/A,,Mostly Cloudy,20,2014-01-22 02:13:00
9:33 PM,8.6,-2.2,62,30.13,10.0,NNE,4.6,-,N/A,,Scattered Clouds,30,2014-01-22 02:33:00
9:51 PM,8.1,-2.0,64,30.19,10.0,NNE,4.6,-,N/A,,Partly Cloudy,20,2014-01-22 02:51:00
10:51 PM,7.0,-0.9,70,30.19,10.0,NNW,4.6,-,N/A,,Clear,340,2014-01-22 03:51:00
11:51 PM,6.1,-2.0,69,30.18,10.0,NNW,5.8,-,N/A,,Partly Cloudy,340,2014-01-22 04:51:00